createdAt,value
2022-10-13T00:00:43.343Z,98659.22
2022-10-13T00:03:10.683Z,98654.03
2022-10-13T00:05:43.122Z,98657.50
2022-10-13T00:08:12.598Z,98661.50
2022-10-13T00:10:45.133Z,98654.28
2022-10-13T00:13:16.643Z,98652.53
2022-10-13T00:15:45.391Z,98658.25
2022-10-13T00:18:13.376Z,98659.75
2022-10-13T00:20:50.874Z,98660.72
2022-10-13T00:23:18.790Z,98660.75
2022-10-13T00:25:48.257Z,98652.28
2022-10-13T00:28:18.510Z,98653.75
2022-10-13T00:30:46.565Z,98651.03
2022-10-13T00:33:14.438Z,98644.59
2022-10-13T00:35:46.889Z,98657.50
2022-10-13T00:38:14.761Z,98656.75
2022-10-13T00:40:53.041Z,98657.50
2022-10-13T00:43:28.070Z,98650.78
2022-10-13T00:45:55.145Z,98657.75
2022-10-13T00:48:25.203Z,98660.00
2022-10-13T00:50:53.135Z,98656.25
2022-10-13T00:53:23.573Z,98653.75
2022-10-13T00:55:51.732Z,98648.81
2022-10-13T00:58:19.788Z,98650.81
2022-10-13T01:00:49.373Z,98653.53
2022-10-13T01:03:18.684Z,98650.78
2022-10-13T01:05:45.997Z,98646.81
2022-10-13T01:08:15.010Z,98651.53
2022-10-13T01:10:55.783Z,98657.75
2022-10-13T01:13:25.881Z,98647.31
2022-10-13T01:16:17.209Z,98650.81
2022-10-13T01:18:51.436Z,98653.28
2022-10-13T01:21:36.573Z,98649.78
2022-10-13T01:24:34.652Z,98642.84
2022-10-13T01:27:07.761Z,98641.59
2022-10-13T01:30:04.882Z,98651.28
2022-10-13T01:32:53.213Z,98655.03
2022-10-13T01:35:38.024Z,98649.03
2022-10-13T01:38:25.561Z,98644.34
2022-10-13T01:41:02.598Z,98641.63
2022-10-13T01:43:37.572Z,98639.66
2022-10-13T01:46:12.534Z,98633.69
2022-10-13T01:48:40.816Z,98633.44
2022-10-13T01:51:10.507Z,98637.66
2022-10-13T01:53:38.024Z,98628.72
2022-10-13T01:56:05.504Z,98627.72
2022-10-13T01:58:34.518Z,98625.25
2022-10-13T02:01:20.451Z,98630.94
2022-10-13T02:04:03.132Z,98630.94
2022-10-13T02:06:39.990Z,98626.72
2022-10-13T02:09:27.351Z,98628.22
2022-10-13T02:11:59.763Z,98629.94
2022-10-13T02:14:29.975Z,98631.69
2022-10-13T02:17:01.301Z,98631.19
2022-10-13T02:19:28.823Z,98638.91
2022-10-13T02:21:57.559Z,98632.94
2022-10-13T02:24:25.015Z,98636.91
2022-10-13T02:26:55.857Z,98633.44
2022-10-13T02:29:23.156Z,98630.94
2022-10-13T02:31:50.345Z,98633.91
2022-10-13T02:34:17.466Z,98632.66
2022-10-13T02:36:44.512Z,98630.69
2022-10-13T02:39:11.952Z,98620.28
2022-10-13T02:41:39.371Z,98622.00
2022-10-13T02:44:06.695Z,98626.44
2022-10-13T02:46:33.925Z,98625.22
2022-10-13T02:49:00.979Z,98613.53
2022-10-13T02:51:28.095Z,98613.03
2022-10-13T02:53:55.232Z,98615.28
2022-10-13T02:56:22.268Z,98613.78
2022-10-13T02:58:49.437Z,98611.53
2022-10-13T03:01:16.501Z,98600.63
2022-10-13T03:03:43.605Z,98600.13
2022-10-13T03:06:10.796Z,98595.91
2022-10-13T03:08:39.197Z,98594.41
2022-10-13T03:11:06.561Z,98591.19
2022-10-13T03:13:33.707Z,98592.41
2022-10-13T03:16:00.842Z,98594.16
2022-10-13T03:18:28.018Z,98588.22
2022-10-13T03:21:03.618Z,98587.47
2022-10-13T03:23:34.047Z,98589.94
2022-10-13T03:26:01.713Z,98586.97
2022-10-13T03:28:28.933Z,98589.41
2022-10-13T03:31:07.675Z,98586.97
2022-10-13T03:33:35.219Z,98593.91
2022-10-13T03:36:04.473Z,98586.69
2022-10-13T03:38:33.674Z,98590.44
2022-10-13T03:41:21.149Z,98581.72
2022-10-13T03:43:48.252Z,98583.25
2022-10-13T03:46:17.369Z,98583.72
2022-10-13T03:48:44.990Z,98576.31
2022-10-13T03:51:14.830Z,98578.53
2022-10-13T03:53:41.997Z,98582.28
2022-10-13T03:56:14.145Z,98578.06
2022-10-13T03:58:41.401Z,98573.56
2022-10-13T04:01:08.465Z,98575.31
2022-10-13T04:03:35.701Z,98572.09
2022-10-13T04:06:04.359Z,98566.63
2022-10-13T04:08:33.227Z,98570.13
2022-10-13T04:11:01.634Z,98564.66
2022-10-13T04:13:28.899Z,98571.84
2022-10-13T04:15:56.132Z,98571.63
2022-10-13T04:18:23.223Z,98571.63
2022-10-13T04:20:50.544Z,98574.84
2022-10-13T04:23:17.608Z,98572.63
2022-10-13T04:25:44.852Z,98566.91
2022-10-13T04:28:12.644Z,98567.91
2022-10-13T04:30:39.728Z,98571.38
2022-10-13T04:33:07.288Z,98562.94
2022-10-13T04:35:34.577Z,98565.44
2022-10-13T04:38:01.690Z,98569.88
2022-10-13T04:40:28.723Z,98561.72
2022-10-13T04:42:55.997Z,98563.72
2022-10-13T04:45:23.138Z,98562.94
2022-10-13T04:47:50.657Z,98562.47
2022-10-13T04:50:17.929Z,98558.47
2022-10-13T04:52:45.076Z,98553.25
2022-10-13T04:55:12.176Z,98556.72
2022-10-13T04:57:39.279Z,98551.25
2022-10-13T05:00:07.303Z,98550.78
2022-10-13T05:02:37.741Z,98549.28
2022-10-13T05:05:05.444Z,98541.59
2022-10-13T05:07:32.555Z,98541.84
2022-10-13T05:09:59.743Z,98548.53
2022-10-13T05:12:26.888Z,98544.31
2022-10-13T05:14:54.103Z,98538.88
2022-10-13T05:17:21.151Z,98532.41
2022-10-13T05:19:49.490Z,98540.34
2022-10-13T05:22:17.060Z,98535.41
2022-10-13T05:24:44.683Z,98535.91
2022-10-13T05:27:13.181Z,98535.63
2022-10-13T05:29:40.634Z,98544.06
2022-10-13T05:32:08.281Z,98532.41
2022-10-13T05:34:35.421Z,98534.63
2022-10-13T05:37:02.645Z,98535.16
2022-10-13T05:39:29.779Z,98522.50
2022-10-13T05:41:56.938Z,98533.41
2022-10-13T05:44:24.629Z,98525.22
2022-10-13T05:46:53.130Z,98531.91
2022-10-13T05:49:20.274Z,98527.22
2022-10-13T05:51:49.884Z,98528.94
2022-10-13T05:54:24.391Z,98526.97
2022-10-13T05:56:57.824Z,98524.97
2022-10-13T05:59:27.252Z,98531.19
2022-10-13T06:01:54.631Z,98531.91
2022-10-13T06:04:28.683Z,98532.19
2022-10-13T06:06:55.827Z,98530.44
2022-10-13T06:09:23.163Z,98531.19
2022-10-13T06:11:50.208Z,98535.16
2022-10-13T06:14:17.243Z,98543.09
2022-10-13T06:16:44.279Z,98528.69
2022-10-13T06:19:11.526Z,98535.38
2022-10-13T06:21:38.637Z,98544.59
2022-10-13T06:24:06.050Z,98549.03
2022-10-13T06:26:33.105Z,98539.88
2022-10-13T06:29:00.446Z,98547.78
2022-10-13T06:31:27.675Z,98553.75
2022-10-13T06:33:54.913Z,98560.47
2022-10-13T06:36:22.486Z,98553.03
2022-10-13T06:38:49.626Z,98548.78
2022-10-13T06:41:16.722Z,98557.47
2022-10-13T06:43:44.030Z,98562.22
2022-10-13T06:46:12.129Z,98566.91
2022-10-13T06:48:39.390Z,98562.91
2022-10-13T06:51:09.022Z,98570.34
2022-10-13T06:53:36.691Z,98582.50
2022-10-13T06:56:06.269Z,98574.28
2022-10-13T06:58:34.742Z,98567.78
2022-10-13T07:01:02.114Z,98570.22
2022-10-13T07:03:29.260Z,98570.97
2022-10-13T07:06:04.281Z,98567.66
2022-10-13T07:08:32.495Z,98571.63
2022-10-13T07:10:59.775Z,98566.09
2022-10-13T07:13:27.358Z,98570.00
2022-10-13T07:15:54.670Z,98576.66
2022-10-13T07:18:21.727Z,98571.13
2022-10-13T07:20:48.999Z,98571.56
2022-10-13T07:23:16.080Z,98566.50
2022-10-13T07:25:43.173Z,98554.50
2022-10-13T07:28:10.276Z,98560.66
2022-10-13T07:30:39.432Z,98555.59
2022-10-13T07:33:06.664Z,98547.78
2022-10-13T07:35:33.813Z,98537.53
2022-10-13T07:38:00.846Z,98537.72
2022-10-13T07:40:27.923Z,98542.84
2022-10-13T07:42:56.682Z,98540.50
2022-10-13T07:45:23.756Z,98538.81
2022-10-13T07:47:51.156Z,98533.88
2022-10-13T07:50:18.307Z,98536.44
2022-10-13T07:52:46.092Z,98537.19
2022-10-13T07:55:13.178Z,98527.25
2022-10-13T07:57:40.431Z,98527.28
2022-10-13T08:00:08.498Z,98517.13
2022-10-13T08:02:35.601Z,98521.16
2022-10-13T08:05:03.669Z,98518.25
2022-10-13T08:07:30.707Z,98512.56
2022-10-13T08:09:58.150Z,98498.44
2022-10-13T08:12:25.249Z,98497.81
2022-10-13T08:14:52.305Z,98498.66
2022-10-13T08:17:19.578Z,98492.97
2022-10-13T08:19:47.197Z,98501.34
2022-10-13T08:22:14.392Z,98491.69
2022-10-13T08:24:41.582Z,98497.09
2022-10-13T08:27:20.049Z,98493.59
2022-10-13T08:29:47.326Z,98490.50
2022-10-13T08:32:14.397Z,98485.41
2022-10-13T08:34:41.663Z,98478.06
2022-10-13T08:37:14.636Z,98482.84
2022-10-13T08:39:41.695Z,98477.56
2022-10-13T08:42:18.597Z,98471.66
2022-10-13T08:45:21.860Z,98466.41
2022-10-13T08:47:44.529Z,98473.78
2022-10-13T08:50:15.721Z,98481.91
2022-10-13T08:53:05.612Z,98478.47
2022-10-13T08:55:41.770Z,98471.75
2022-10-13T08:58:15.084Z,98466.28
2022-10-13T09:00:42.511Z,98460.81
2022-10-13T09:03:28.003Z,98467.84
2022-10-13T09:06:10.393Z,98465.69
2022-10-13T09:08:44.851Z,98463.53
2022-10-13T09:11:13.118Z,98464.44
2022-10-13T09:13:40.504Z,98468.34
2022-10-13T09:16:08.112Z,98467.25
2022-10-13T09:18:35.654Z,98463.19
2022-10-13T09:21:20.276Z,98469.66
2022-10-13T09:23:54.182Z,98467.84
2022-10-13T09:26:24.099Z,98469.31
2022-10-13T09:28:51.883Z,98466.34
2022-10-13T09:31:24.776Z,98462.91
2022-10-13T09:33:59.359Z,98467.72
2022-10-13T09:36:26.540Z,98459.25
2022-10-13T09:39:11.759Z,98463.16
2022-10-13T09:41:39.939Z,98461.69
2022-10-13T09:44:12.754Z,98463.00
2022-10-13T09:46:50.720Z,98462.84
2022-10-13T09:49:39.578Z,98453.28
2022-10-13T09:52:07.040Z,98451.28
2022-10-13T09:54:39.015Z,98447.06
2022-10-13T09:57:14.326Z,98451.72
2022-10-13T09:59:46.314Z,98445.81
2022-10-13T10:02:34.130Z,98448.00
2022-10-13T10:05:07.105Z,98450.59
2022-10-13T10:07:34.301Z,98446.72
2022-10-13T10:10:06.651Z,98442.31
2022-10-13T10:12:36.957Z,98446.19
2022-10-13T10:15:16.967Z,98440.31
2022-10-13T10:17:51.998Z,98436.25
2022-10-13T10:20:37.651Z,98436.25
2022-10-13T10:23:06.597Z,98426.66
2022-10-13T10:25:47.293Z,98428.34
2022-10-13T10:28:25.294Z,98425.94
2022-10-13T10:31:02.905Z,98417.09
2022-10-13T10:33:55.532Z,98422.25
2022-10-13T10:36:29.686Z,98405.69
2022-10-13T10:39:03.663Z,98401.81
2022-10-13T10:41:39.013Z,98401.47
2022-10-13T10:44:31.474Z,98400.34
2022-10-13T10:47:05.708Z,98402.75
2022-10-13T10:49:35.304Z,98394.09
2022-10-13T10:52:19.591Z,98400.16
2022-10-13T10:54:56.682Z,98404.03
2022-10-13T10:57:35.798Z,98407.16
2022-10-13T11:00:06.560Z,98407.16
2022-10-13T11:02:37.318Z,98403.44
2022-10-13T11:05:06.416Z,98392.00
2022-10-13T11:07:33.699Z,98392.38
2022-10-13T11:10:14.224Z,98384.47
2022-10-13T11:12:53.756Z,98389.28
2022-10-13T11:15:25.596Z,98388.00
2022-10-13T11:17:52.897Z,98383.03
2022-10-13T11:20:25.125Z,98396.50
2022-10-13T11:22:58.094Z,98390.75
2022-10-13T11:25:41.522Z,98378.25
2022-10-13T11:28:20.734Z,98374.41
2022-10-13T11:30:50.393Z,98372.38
2022-10-13T11:33:32.651Z,98366.28
2022-10-13T11:36:39.415Z,98367.75
2022-10-13T11:39:28.109Z,98367.19
2022-10-13T11:42:20.322Z,98366.13
2022-10-13T11:45:12.076Z,98353.94
2022-10-13T11:48:21.300Z,98352.66
2022-10-13T11:50:58.704Z,98363.13
2022-10-13T11:53:35.036Z,98355.97
2022-10-13T11:56:02.192Z,98359.06
2022-10-13T11:58:31.175Z,98355.75
2022-10-13T12:01:00.506Z,98353.56
2022-10-13T12:03:27.757Z,98349.16
2022-10-13T12:05:59.144Z,98349.16
2022-10-13T12:08:27.509Z,98348.25
2022-10-13T12:10:57.316Z,98346.38
2022-10-13T12:13:27.703Z,98349.88
2022-10-13T12:16:13.559Z,98347.13
2022-10-13T12:18:41.123Z,98347.50
2022-10-13T12:21:17.910Z,98343.25
2022-10-13T12:23:45.226Z,98344.53
2022-10-13T12:26:16.915Z,98342.34
2022-10-13T12:28:49.213Z,98348.97
2022-10-13T12:31:22.429Z,98341.78
2022-10-13T12:34:00.974Z,98344.03
2022-10-13T12:36:31.099Z,98343.47
2022-10-13T12:39:04.408Z,98346.56
2022-10-13T12:41:41.255Z,98343.25
2022-10-13T12:44:13.552Z,98346.78
2022-10-13T12:46:49.023Z,98341.25
2022-10-13T12:49:30.309Z,98342.72
2022-10-13T12:52:09.609Z,98344.03
2022-10-13T12:54:39.087Z,98332.41
2022-10-13T12:57:17.878Z,98325.78
2022-10-13T12:59:45.015Z,98325.59
2022-10-13T13:02:26.332Z,98320.97
2022-10-13T13:04:53.929Z,98327.22
2022-10-13T13:07:35.583Z,98315.97
2022-10-13T13:10:18.797Z,98313.56
2022-10-13T13:12:47.676Z,98304.72
2022-10-13T13:15:27.243Z,98308.41
2022-10-13T13:17:59.042Z,98307.47
2022-10-13T13:20:32.189Z,98308.56
2022-10-13T13:22:59.875Z,98303.22
2022-10-13T13:25:27.155Z,98302.84
2022-10-13T13:27:54.396Z,98300.66
2022-10-13T13:30:23.631Z,98305.06
2022-10-13T13:32:51.146Z,98307.69
2022-10-13T13:35:18.601Z,98299.41
2022-10-13T13:37:48.881Z,98306.25
2022-10-13T13:40:18.667Z,98305.69
2022-10-13T13:42:45.787Z,98298.28
2022-10-13T13:45:13.978Z,98290.38
2022-10-13T13:47:41.092Z,98292.94
2022-10-13T13:50:17.075Z,98301.78
2022-10-13T13:52:44.250Z,98306.22
2022-10-13T13:55:11.391Z,98299.97
2022-10-13T13:57:38.420Z,98296.81
2022-10-13T14:00:06.254Z,98297.41
2022-10-13T14:02:33.339Z,98291.16
2022-10-13T14:05:00.548Z,98288.72
2022-10-13T14:07:27.610Z,98287.81
2022-10-13T14:09:57.859Z,98293.34
2022-10-13T14:12:32.506Z,98288.53
2022-10-13T14:14:59.827Z,98287.81
2022-10-13T14:17:28.055Z,98274.38
2022-10-13T14:19:56.406Z,98276.03
2022-10-13T14:22:23.777Z,98281.41
2022-10-13T14:24:50.945Z,98272.38
2022-10-13T14:27:18.129Z,98271.25
2022-10-13T14:29:45.228Z,98268.88
2022-10-13T14:32:12.634Z,98262.44
2022-10-13T14:34:39.704Z,98257.47
2022-10-13T14:37:06.809Z,98258.22
2022-10-13T14:39:33.918Z,98259.88
2022-10-13T14:42:01.201Z,98248.84
2022-10-13T14:44:28.316Z,98243.50
2022-10-13T14:46:55.553Z,98245.91
2022-10-13T14:49:22.600Z,98249.59
2022-10-13T14:51:49.752Z,98243.91
2022-10-13T14:54:16.877Z,98242.44
2022-10-13T14:56:44.785Z,98244.25
2022-10-13T14:59:12.522Z,98248.13
2022-10-13T15:01:41.550Z,98246.28
2022-10-13T15:04:09.074Z,98251.44
2022-10-13T15:06:39.147Z,98251.25
2022-10-13T15:11:39.483Z,98244.47
2022-10-13T15:14:07.467Z,98257.69
2022-10-13T15:16:35.037Z,98256.22
2022-10-13T15:19:02.727Z,98256.56
2022-10-13T15:21:29.943Z,98258.03
2022-10-13T15:23:57.133Z,98253.81
2022-10-13T15:26:24.504Z,98246.66
2022-10-13T15:28:53.098Z,98247.22
2022-10-13T15:31:21.660Z,98243.34
2022-10-13T15:33:51.781Z,98240.22
2022-10-13T15:36:20.101Z,98243.34
2022-10-13T15:38:47.236Z,98241.31
2022-10-13T15:41:14.493Z,98242.25
2022-10-13T15:43:41.608Z,98256.22
2022-10-13T15:46:12.318Z,98252.91
2022-10-13T15:48:39.516Z,98251.63
2022-10-13T15:51:14.485Z,98247.22
2022-10-13T15:53:41.587Z,98246.28
2022-10-13T15:56:08.843Z,98243.34
2022-10-13T15:58:36.064Z,98249.22
2022-10-13T16:01:11.064Z,98244.81
2022-10-13T16:03:38.574Z,98239.09
2022-10-13T16:06:07.583Z,98236.34
2022-10-13T16:08:39.507Z,98235.97
2022-10-13T16:11:11.022Z,98244.81
2022-10-13T16:13:38.824Z,98244.97
2022-10-13T16:16:06.609Z,98243.47
2022-10-13T16:18:36.075Z,98240.16
2022-10-13T16:21:18.599Z,98238.50
2022-10-13T16:23:46.977Z,98242.88
2022-10-13T16:26:14.859Z,98252.06
2022-10-13T16:28:42.057Z,98252.06
2022-10-13T16:31:13.541Z,98253.91
2022-10-13T16:33:44.566Z,98253.50
2022-10-13T16:36:13.910Z,98256.41
2022-10-13T16:38:42.022Z,98257.13
2022-10-13T16:41:14.151Z,98258.94
2022-10-13T16:43:42.149Z,98260.56
2022-10-13T16:46:13.223Z,98271.78
2022-10-13T16:48:41.219Z,98280.00
2022-10-13T16:51:10.521Z,98274.63
2022-10-13T16:53:38.675Z,98277.53
2022-10-13T16:56:07.074Z,98272.00
2022-10-13T16:58:34.576Z,98275.66
2022-10-13T17:01:06.185Z,98279.09
2022-10-13T17:03:33.298Z,98284.19
2022-10-13T17:06:00.625Z,98279.22
2022-10-13T17:08:27.903Z,98276.09
2022-10-13T17:10:58.215Z,98285.97
2022-10-13T17:13:25.546Z,98284.31
2022-10-13T17:15:54.186Z,98280.06
2022-10-13T17:18:21.498Z,98283.91
2022-10-13T17:21:04.243Z,98280.94
2022-10-13T17:23:31.903Z,98288.78
2022-10-13T17:26:04.336Z,98292.63
2022-10-13T17:28:32.110Z,98289.50
2022-10-13T17:31:01.098Z,98287.81
2022-10-13T17:33:29.259Z,98294.78
2022-10-13T17:36:00.988Z,98292.56
2022-10-13T17:38:28.595Z,98287.06
2022-10-13T17:41:00.330Z,98284.13
2022-10-13T17:43:27.669Z,98289.81
2022-10-13T17:46:07.443Z,98284.72
2022-10-13T17:48:42.777Z,98281.25
2022-10-13T17:51:12.105Z,98284.19
2022-10-13T17:53:40.120Z,98284.56
2022-10-13T17:56:11.634Z,98280.75
2022-10-13T17:58:40.026Z,98273.97
2022-10-13T18:01:13.545Z,98270.69
2022-10-13T18:03:45.043Z,98273.06
2022-10-13T18:06:12.292Z,98270.53
2022-10-13T18:08:39.531Z,98261.00
2022-10-13T18:11:15.698Z,98255.31
2022-10-13T18:13:44.527Z,98267.25
2022-10-13T18:16:22.539Z,98254.94
2022-10-13T18:18:51.217Z,98267.78
2022-10-13T18:21:22.388Z,98253.47
2022-10-13T18:23:49.555Z,98260.81
2022-10-13T18:26:18.862Z,98259.13
2022-10-13T18:28:47.257Z,98259.13
2022-10-13T18:31:17.072Z,98250.88
2022-10-13T18:33:44.363Z,98245.16
2022-10-13T18:36:20.062Z,98251.22
2022-10-13T18:38:47.558Z,98250.28
2022-10-13T18:41:16.129Z,98247.75
2022-10-13T18:43:43.208Z,98237.59
2022-10-13T18:46:10.312Z,98243.09
2022-10-13T18:48:37.426Z,98230.44
2022-10-13T18:51:06.751Z,98220.31
2022-10-13T18:53:38.447Z,98222.13
2022-10-13T18:56:08.398Z,98226.69
2022-10-13T18:58:35.661Z,98221.72
2022-10-13T19:01:05.980Z,98229.25
2022-10-13T19:03:35.988Z,98228.50
2022-10-13T19:06:05.381Z,98235.28
2022-10-13T19:08:32.948Z,98234.34
2022-10-13T19:11:00.233Z,98234.50
2022-10-13T19:13:27.961Z,98233.31
2022-10-13T19:16:01.848Z,98240.44
2022-10-13T19:18:29.115Z,98234.75
2022-10-13T19:20:56.255Z,98242.59
2022-10-13T19:23:23.395Z,98244.41
2022-10-13T19:25:50.512Z,98247.16
2022-10-13T19:28:17.683Z,98251.91
2022-10-13T19:30:44.926Z,98252.25
2022-10-13T19:33:14.261Z,98245.63
2022-10-13T19:35:43.182Z,98253.66
2022-10-13T19:38:10.543Z,98249.41
2022-10-13T19:40:42.538Z,98246.66
2022-10-13T19:43:10.222Z,98243.72
2022-10-13T19:45:44.082Z,98241.53
2022-10-13T19:48:11.221Z,98240.38
2022-10-13T19:50:38.302Z,98249.50
2022-10-13T19:53:05.344Z,98241.78
2022-10-13T19:55:37.993Z,98242.53
2022-10-13T19:58:05.077Z,98254.47
2022-10-13T20:00:32.535Z,98248.75
2022-10-13T20:02:59.744Z,98258.69
2022-10-13T20:05:27.139Z,98258.13
2022-10-13T20:07:54.683Z,98259.59
2022-10-13T20:10:22.013Z,98253.38
2022-10-13T20:12:49.054Z,98258.88
2022-10-13T20:15:28.815Z,98259.22
2022-10-13T20:17:56.177Z,98255.72
2022-10-13T20:20:23.330Z,98260.16
2022-10-13T20:22:53.033Z,98247.50
2022-10-13T20:25:20.181Z,98253.72
2022-10-13T20:27:47.237Z,98252.25
2022-10-13T20:30:14.433Z,98255.72
2022-10-13T20:32:41.658Z,98255.00
2022-10-13T20:35:08.832Z,98257.00
2022-10-13T20:37:35.970Z,98241.25
2022-10-13T20:40:12.790Z,98243.47
2022-10-13T20:42:39.887Z,98244.00
2022-10-13T20:45:07.427Z,98244.00
2022-10-13T20:47:34.508Z,98241.25
2022-10-13T20:50:01.615Z,98236.50
2022-10-13T20:52:28.650Z,98235.03
2022-10-13T20:54:55.698Z,98237.97
2022-10-13T20:57:23.199Z,98242.19
2022-10-13T20:59:50.426Z,98242.19
2022-10-13T21:02:17.455Z,98233.75
2022-10-13T21:04:44.538Z,98231.72
2022-10-13T21:07:11.614Z,98239.97
2022-10-13T21:09:38.738Z,98221.81
2022-10-13T21:12:06.183Z,98225.81
2022-10-13T21:14:33.244Z,98221.06
2022-10-13T21:17:00.367Z,98213.03
2022-10-13T21:19:29.273Z,98218.31
2022-10-13T21:21:56.331Z,98217.06
2022-10-13T21:24:23.361Z,98210.06
2022-10-13T21:26:50.442Z,98208.81
2022-10-13T21:29:17.532Z,98204.06
2022-10-13T21:31:44.555Z,98204.06
2022-10-13T21:34:12.319Z,98211.56
2022-10-13T21:36:44.008Z,98212.81
2022-10-13T21:39:11.267Z,98214.81
2022-10-13T21:41:38.350Z,98217.38
2022-10-13T21:44:05.415Z,98219.19
2022-10-13T21:46:34.098Z,98215.50
2022-10-13T21:49:03.002Z,98204.84
2022-10-13T21:51:38.205Z,98201.91
2022-10-13T21:54:07.767Z,98207.19
2022-10-13T21:56:35.799Z,98218.50
2022-10-13T21:59:03.754Z,98210.59
2022-10-13T22:01:31.050Z,98211.88
2022-10-13T22:03:59.648Z,98204.50
2022-10-13T22:06:28.062Z,98215.47
2022-10-13T22:08:56.638Z,98214.31
2022-10-13T22:11:26.622Z,98210.63
2022-10-13T22:13:56.036Z,98207.69
2022-10-13T22:16:30.531Z,98219.00
2022-10-13T22:18:58.069Z,98215.31
2022-10-13T22:21:30.711Z,98209.94
2022-10-13T22:23:59.908Z,98211.00
2022-10-13T22:26:28.810Z,98223.81
2022-10-13T22:28:59.725Z,98219.06
2022-10-13T22:31:27.229Z,98221.25
2022-10-13T22:33:54.852Z,98225.47
2022-10-13T22:36:23.682Z,98221.25
2022-10-13T22:38:52.271Z,98210.28
2022-10-13T22:41:19.860Z,98215.03
2022-10-13T22:43:52.236Z,98216.69
2022-10-13T22:46:21.803Z,98224.19
2022-10-13T22:48:48.967Z,98208.59
2022-10-13T22:51:21.130Z,98225.59
2022-10-13T22:53:49.024Z,98220.63
2022-10-13T22:56:24.502Z,98222.25
2022-10-13T22:58:53.237Z,98216.00
2022-10-13T23:01:21.450Z,98213.78
2022-10-13T23:03:50.341Z,98210.63
2022-10-13T23:06:20.428Z,98211.72
2022-10-13T23:08:47.713Z,98206.53
2022-10-13T23:11:15.602Z,98200.41
2022-10-13T23:13:43.602Z,98197.25
2022-10-13T23:16:14.466Z,98202.53
2022-10-13T23:18:41.743Z,98200.66
2022-10-13T23:21:11.088Z,98202.53
2022-10-13T23:23:38.185Z,98198.09
2022-10-13T23:26:06.905Z,98197.13
2022-10-13T23:28:34.475Z,98196.00
2022-10-13T23:31:03.381Z,98191.34
2022-10-13T23:33:30.625Z,98183.34
2022-10-13T23:35:58.829Z,98183.09
2022-10-13T23:38:26.836Z,98185.44
2022-10-13T23:40:53.907Z,98181.75
2022-10-13T23:43:21.319Z,98181.94
2022-10-13T23:45:48.383Z,98187.56
2022-10-13T23:48:15.470Z,98184.56
2022-10-13T23:50:42.594Z,98184.91
2022-10-13T23:53:09.968Z,98185.97
2022-10-13T23:55:38.808Z,98189.75
2022-10-13T23:58:05.964Z,98185.53
